createdAt,value
2022-11-17T00:00:24.076Z,8.80
2022-11-17T00:03:15.423Z,8.90
2022-11-17T00:06:07.206Z,9.70
2022-11-17T00:08:53.043Z,9.10
2022-11-17T00:11:57.154Z,9.00
2022-11-17T00:14:43.013Z,9.10
2022-11-17T00:17:28.529Z,9.10
2022-11-17T00:20:33.437Z,9.10
2022-11-17T00:23:18.805Z,9.10
2022-11-17T00:26:04.392Z,9.30
2022-11-17T00:28:54.712Z,9.00
2022-11-17T00:31:58.612Z,9.10
2022-11-17T00:34:44.320Z,9.20
2022-11-17T00:37:34.346Z,9.30
2022-11-17T00:40:19.837Z,10.20
2022-11-17T00:43:05.419Z,9.10
2022-11-17T00:45:51.044Z,9.10
2022-11-17T00:48:36.609Z,9.10
2022-11-17T00:51:22.307Z,8.90
2022-11-17T00:54:10.689Z,9.60
2022-11-17T00:56:56.490Z,8.70
2022-11-17T00:59:41.853Z,8.90
2022-11-17T01:02:27.219Z,8.90
2022-11-17T01:05:12.680Z,8.80
2022-11-17T01:07:59.267Z,8.80
2022-11-17T01:10:44.686Z,8.70
2022-11-17T01:13:30.505Z,8.60
2022-11-17T01:16:18.676Z,8.30
2022-11-17T01:19:04.530Z,8.30
2022-11-17T01:21:49.867Z,8.30
2022-11-17T01:24:35.441Z,9.10
2022-11-17T01:27:20.778Z,8.10
2022-11-17T01:30:06.708Z,8.20
2022-11-17T01:32:51.874Z,8.30
2022-11-17T01:35:37.492Z,8.40
2022-11-17T01:38:23.088Z,8.50
2022-11-17T01:41:25.234Z,8.70
2022-11-17T01:44:41.832Z,8.70
2022-11-17T01:47:42.551Z,8.70
2022-11-17T01:50:39.195Z,8.70
2022-11-17T01:53:26.213Z,8.70
2022-11-17T01:56:18.755Z,8.70
2022-11-17T01:59:10.091Z,9.10
2022-11-17T02:01:55.954Z,8.90
2022-11-17T02:04:47.301Z,9.10
2022-11-17T02:07:36.555Z,9.20
2022-11-17T02:10:22.427Z,9.10
2022-11-17T02:13:09.283Z,9.20
2022-11-17T02:15:54.902Z,10.40
2022-11-17T02:18:45.252Z,9.00
2022-11-17T02:21:34.084Z,9.00
2022-11-17T02:24:42.275Z,9.00
2022-11-17T02:27:56.964Z,8.80
2022-11-17T02:31:25.636Z,9.00
2022-11-17T02:34:34.402Z,9.00
2022-11-17T02:37:41.127Z,10.10
2022-11-17T02:40:43.761Z,9.00
2022-11-17T02:43:54.883Z,9.60
2022-11-17T02:46:51.992Z,9.90
2022-11-17T02:49:41.466Z,9.10
2022-11-17T02:52:28.681Z,9.30
2022-11-17T02:55:14.411Z,9.20
2022-11-17T02:58:00.001Z,9.10
2022-11-17T03:01:10.928Z,9.00
2022-11-17T03:04:40.121Z,9.00
2022-11-17T03:07:50.210Z,9.10
2022-11-17T03:10:50.593Z,9.10
2022-11-17T03:13:56.251Z,9.10
2022-11-17T03:16:55.259Z,9.10
2022-11-17T03:20:05.228Z,9.00
2022-11-17T03:22:53.727Z,9.10
2022-11-17T03:25:44.486Z,9.40
2022-11-17T03:28:32.724Z,9.00
2022-11-17T03:31:20.812Z,10.20
2022-11-17T03:34:12.454Z,8.90
2022-11-17T03:37:03.593Z,8.80
2022-11-17T03:39:54.260Z,9.70
2022-11-17T03:42:44.479Z,8.50
2022-11-17T03:45:42.476Z,8.60
2022-11-17T03:48:53.764Z,9.20
2022-11-17T03:51:39.011Z,8.40
2022-11-17T03:54:24.805Z,8.70
2022-11-17T03:57:20.862Z,8.60
2022-11-17T04:00:11.502Z,8.60
2022-11-17T04:03:00.710Z,8.40
2022-11-17T04:05:46.375Z,9.40
2022-11-17T04:08:31.881Z,8.60
2022-11-17T04:11:35.811Z,8.80
2022-11-17T04:14:39.706Z,9.10
2022-11-17T04:17:24.997Z,8.70
2022-11-17T04:20:10.842Z,8.60
2022-11-17T04:23:08.500Z,8.60
2022-11-17T04:26:14.672Z,8.70
2022-11-17T04:28:59.973Z,8.70
2022-11-17T04:31:45.305Z,9.80
2022-11-17T04:34:30.917Z,9.30
2022-11-17T04:37:19.317Z,9.00
2022-11-17T04:40:05.347Z,8.50
2022-11-17T04:42:50.490Z,8.60
2022-11-17T04:45:36.212Z,10.30
2022-11-17T04:48:21.486Z,9.30
2022-11-17T04:51:07.210Z,9.30
2022-11-17T04:53:52.962Z,8.40
2022-11-17T04:56:39.149Z,8.20
2022-11-17T04:59:24.827Z,8.20
2022-11-17T05:02:10.356Z,8.30
2022-11-17T05:04:56.001Z,8.10
2022-11-17T05:07:41.411Z,8.00
2022-11-17T05:10:53.063Z,7.90
2022-11-17T05:13:38.607Z,7.80
2022-11-17T05:16:43.367Z,9.10
2022-11-17T05:19:30.583Z,8.10
2022-11-17T05:22:37.125Z,8.10
2022-11-17T05:25:22.507Z,7.60
2022-11-17T05:28:08.009Z,7.70
2022-11-17T05:30:53.964Z,8.10
2022-11-17T05:33:40.386Z,7.70
2022-11-17T05:36:27.044Z,7.70
2022-11-17T05:39:14.064Z,7.50
2022-11-17T05:41:59.231Z,7.60
2022-11-17T05:44:45.058Z,7.60
2022-11-17T05:47:30.430Z,7.60
2022-11-17T05:50:16.094Z,7.50
2022-11-17T05:53:01.681Z,7.50
2022-11-17T05:55:47.113Z,7.60
2022-11-17T05:58:33.675Z,7.60
2022-11-17T06:01:20.484Z,7.80
2022-11-17T06:04:08.046Z,8.50
2022-11-17T06:06:59.049Z,7.70
2022-11-17T06:09:45.800Z,7.20
2022-11-17T06:12:31.124Z,7.10
2022-11-17T06:15:17.368Z,7.20
2022-11-17T06:18:14.223Z,7.20
2022-11-17T06:21:00.781Z,7.40
2022-11-17T06:23:48.049Z,7.50
2022-11-17T06:26:34.346Z,7.50
2022-11-17T06:29:20.226Z,7.60
2022-11-17T06:32:05.552Z,7.60
2022-11-17T06:34:55.730Z,7.60
2022-11-17T06:37:41.645Z,8.10
2022-11-17T06:40:27.879Z,7.60
2022-11-17T06:43:13.540Z,7.60
2022-11-17T06:46:04.804Z,7.60
2022-11-17T06:48:50.328Z,7.40
2022-11-17T06:51:38.862Z,7.60
2022-11-17T06:54:26.680Z,8.70
2022-11-17T06:57:11.890Z,7.60
2022-11-17T06:59:57.568Z,7.20
2022-11-17T07:02:43.164Z,8.50
2022-11-17T07:05:28.519Z,7.80
2022-11-17T07:08:14.605Z,9.40
2022-11-17T07:11:05.242Z,8.50
2022-11-17T07:13:50.694Z,8.70
2022-11-17T07:16:36.319Z,8.90
2022-11-17T07:19:21.792Z,9.10
2022-11-17T07:22:07.585Z,10.40
2022-11-17T07:24:52.892Z,10.50
2022-11-17T07:27:38.984Z,9.80
2022-11-17T07:30:24.491Z,9.90
2022-11-17T07:33:09.988Z,10.00
2022-11-17T07:35:56.217Z,11.40
2022-11-17T07:38:41.790Z,10.10
2022-11-17T07:41:27.174Z,10.30
2022-11-17T07:44:12.474Z,10.40
2022-11-17T07:46:57.824Z,11.20
2022-11-17T07:49:43.264Z,10.30
2022-11-17T07:52:28.501Z,10.40
2022-11-17T07:55:13.960Z,10.30
2022-11-17T07:58:01.432Z,10.40
2022-11-17T08:00:46.756Z,11.50
2022-11-17T08:03:32.297Z,10.40
2022-11-17T08:06:17.939Z,10.60
2022-11-17T08:09:03.567Z,10.60
2022-11-17T08:11:48.807Z,11.20
2022-11-17T08:14:34.295Z,11.50
2022-11-17T08:17:20.090Z,12.00
2022-11-17T08:20:06.056Z,13.30
2022-11-17T08:22:52.544Z,10.90
2022-11-17T08:25:38.233Z,13.50
2022-11-17T08:28:23.481Z,11.10
2022-11-17T08:31:09.132Z,11.20
2022-11-17T08:33:54.792Z,11.20
2022-11-17T08:36:40.317Z,12.00
2022-11-17T08:39:25.637Z,11.60
2022-11-17T08:42:11.202Z,11.80
2022-11-17T08:44:56.602Z,12.00
2022-11-17T08:47:42.156Z,12.00
2022-11-17T08:50:27.590Z,12.10
2022-11-17T08:53:21.448Z,12.20
2022-11-17T08:56:11.430Z,12.10
2022-11-17T08:58:56.872Z,12.20
2022-11-17T09:01:42.707Z,12.20
2022-11-17T09:04:27.911Z,14.10
2022-11-17T09:07:13.800Z,12.70
2022-11-17T09:10:00.143Z,12.40
2022-11-17T09:12:45.754Z,12.40
2022-11-17T09:15:33.142Z,12.50
2022-11-17T09:18:18.380Z,12.50
2022-11-17T09:21:08.900Z,12.50
2022-11-17T09:23:54.842Z,12.60
2022-11-17T09:26:41.075Z,12.60
2022-11-17T09:29:27.358Z,12.60
2022-11-17T09:32:13.489Z,12.80
2022-11-17T09:35:00.934Z,14.00
2022-11-17T09:37:46.569Z,12.80
2022-11-17T09:40:37.843Z,12.80
2022-11-17T09:43:30.157Z,12.20
2022-11-17T09:46:25.267Z,13.20
2022-11-17T09:49:37.093Z,13.30
2022-11-17T09:52:31.978Z,12.40
2022-11-17T09:55:22.628Z,12.00
2022-11-17T09:58:38.368Z,11.70
2022-11-17T10:01:27.365Z,10.80
2022-11-17T10:04:16.867Z,11.60
2022-11-17T10:07:03.976Z,10.90
2022-11-17T10:09:51.946Z,10.90
2022-11-17T10:12:47.699Z,10.70
2022-11-17T10:15:59.276Z,11.10
2022-11-17T10:18:44.563Z,12.80
2022-11-17T10:21:30.911Z,11.80
2022-11-17T10:24:36.035Z,11.90
2022-11-17T10:27:33.788Z,13.10
2022-11-17T10:30:25.452Z,11.90
2022-11-17T10:33:13.626Z,11.60
2022-11-17T10:35:59.434Z,11.80
2022-11-17T10:38:47.408Z,12.00
2022-11-17T10:41:40.492Z,13.40
2022-11-17T10:44:34.666Z,13.70
2022-11-17T10:47:30.997Z,12.90
2022-11-17T10:50:25.686Z,13.40
2022-11-17T10:53:46.012Z,13.60
2022-11-17T10:56:41.676Z,13.70
2022-11-17T10:59:32.672Z,14.50
2022-11-17T11:02:29.842Z,15.10
2022-11-17T11:05:18.324Z,14.90
2022-11-17T11:08:23.491Z,15.10
2022-11-17T11:11:34.859Z,15.60
2022-11-17T11:14:38.109Z,16.40
2022-11-17T11:17:28.588Z,16.10
2022-11-17T11:20:20.543Z,16.70
2022-11-17T11:23:32.159Z,16.90
2022-11-17T11:26:22.471Z,17.10
2022-11-17T11:29:17.038Z,17.90
2022-11-17T11:32:38.700Z,16.50
2022-11-17T11:35:39.201Z,16.60
2022-11-17T11:38:42.680Z,16.70
2022-11-17T11:41:49.112Z,16.80
2022-11-17T11:44:47.967Z,16.50
2022-11-17T11:48:02.776Z,15.90
2022-11-17T11:51:10.041Z,16.30
2022-11-17T11:54:02.187Z,16.70
2022-11-17T11:56:48.357Z,16.60
2022-11-17T11:59:50.713Z,17.30
2022-11-17T12:02:41.996Z,17.00
2022-11-17T12:05:53.364Z,16.30
2022-11-17T12:08:49.276Z,16.40
2022-11-17T12:11:56.804Z,16.10
2022-11-17T12:15:11.287Z,15.30
2022-11-17T12:18:05.959Z,14.70
2022-11-17T12:20:55.306Z,14.90
2022-11-17T12:23:56.189Z,15.60
2022-11-17T12:26:41.688Z,15.40
2022-11-17T12:29:30.794Z,17.00
2022-11-17T12:32:44.274Z,15.90
2022-11-17T12:35:37.048Z,14.90
2022-11-17T12:38:22.519Z,14.80
2022-11-17T12:41:08.684Z,14.60
2022-11-17T12:44:22.687Z,14.40
2022-11-17T12:47:20.227Z,14.00
2022-11-17T12:50:18.144Z,13.90
2022-11-17T12:53:09.452Z,13.90
2022-11-17T12:56:05.696Z,13.80
2022-11-17T12:59:15.740Z,14.10
2022-11-17T13:02:53.237Z,13.90
2022-11-17T13:05:38.777Z,14.10
2022-11-17T13:08:24.566Z,14.90
2022-11-17T13:11:17.687Z,14.20
2022-11-17T13:14:17.373Z,14.00
2022-11-17T13:17:03.712Z,13.30
2022-11-17T13:20:02.123Z,13.40
2022-11-17T13:23:19.757Z,13.30
2022-11-17T13:26:38.235Z,13.00
2022-11-17T13:29:24.290Z,13.30
2022-11-17T13:32:22.065Z,14.20
2022-11-17T13:35:21.902Z,12.90
2022-11-17T13:38:21.155Z,12.70
2022-11-17T13:41:06.899Z,12.50
2022-11-17T13:43:53.240Z,12.40
2022-11-17T13:46:38.968Z,12.50
2022-11-17T13:49:38.036Z,13.00
2022-11-17T13:52:40.473Z,11.90
2022-11-17T13:55:29.773Z,11.90
2022-11-17T13:58:26.702Z,12.20
2022-11-17T14:01:15.549Z,12.20
2022-11-17T14:04:20.150Z,12.40
2022-11-17T14:07:06.008Z,12.60
2022-11-17T14:10:31.697Z,12.70
2022-11-17T14:13:17.203Z,12.70
2022-11-17T14:16:02.366Z,12.80
2022-11-17T14:19:29.472Z,12.80
2022-11-17T14:22:22.375Z,12.80
2022-11-17T14:25:12.714Z,12.90
2022-11-17T14:27:58.306Z,13.10
2022-11-17T14:30:44.009Z,13.30
2022-11-17T14:33:29.539Z,13.60
2022-11-17T14:36:17.095Z,13.60
2022-11-17T14:39:03.347Z,14.20
2022-11-17T14:41:50.435Z,14.00
2022-11-17T14:44:35.723Z,14.00
2022-11-17T14:47:21.522Z,14.30
2022-11-17T14:50:08.616Z,14.40
2022-11-17T14:52:54.499Z,14.40
2022-11-17T14:55:40.015Z,15.00
2022-11-17T14:58:25.353Z,14.00
2022-11-17T15:01:24.216Z,14.70
2022-11-17T15:04:43.347Z,14.70
2022-11-17T15:07:21.605Z,13.70
2022-11-17T15:10:08.407Z,13.80
2022-11-17T15:12:53.866Z,13.70
2022-11-17T15:15:39.184Z,13.80
2022-11-17T15:18:24.523Z,13.80
2022-11-17T15:21:10.971Z,13.80
2022-11-17T15:23:56.381Z,13.70
2022-11-17T15:26:41.909Z,13.60
2022-11-17T15:29:27.620Z,13.60
2022-11-17T15:32:13.033Z,13.90
2022-11-17T15:34:58.573Z,13.60
2022-11-17T15:37:44.126Z,13.90
2022-11-17T15:40:29.406Z,13.40
2022-11-17T15:43:14.987Z,13.40
2022-11-17T15:46:05.450Z,13.20
2022-11-17T15:48:52.543Z,13.20
2022-11-17T15:51:37.933Z,13.10
2022-11-17T15:54:23.523Z,13.00
2022-11-17T15:57:09.056Z,12.90
2022-11-17T15:59:54.648Z,12.70
2022-11-17T16:02:42.124Z,12.70
2022-11-17T16:05:27.824Z,12.50
2022-11-17T16:08:13.406Z,12.40
2022-11-17T16:10:58.899Z,12.40
2022-11-17T16:13:44.237Z,12.20
2022-11-17T16:16:33.028Z,12.10
2022-11-17T16:19:19.083Z,12.90
2022-11-17T16:22:04.962Z,12.00
2022-11-17T16:24:50.604Z,11.90
2022-11-17T16:27:36.113Z,11.90
2022-11-17T16:30:21.399Z,11.90
2022-11-17T16:33:12.433Z,11.80
2022-11-17T16:36:05.337Z,12.50
2022-11-17T16:39:00.754Z,11.60
2022-11-17T16:41:47.535Z,12.10
2022-11-17T16:44:32.801Z,11.70
2022-11-17T16:47:18.269Z,12.00
2022-11-17T16:50:06.517Z,12.00
2022-11-17T16:52:52.009Z,11.50
2022-11-17T16:55:38.198Z,11.40
2022-11-17T16:58:23.593Z,11.40
2022-11-17T17:01:12.576Z,11.40
2022-11-17T17:04:08.667Z,12.60
2022-11-17T17:06:53.961Z,11.40
2022-11-17T17:09:39.448Z,11.50
2022-11-17T17:12:25.146Z,11.60
2022-11-17T17:15:10.874Z,11.60
2022-11-17T17:17:56.203Z,11.40
2022-11-17T17:20:50.585Z,11.40
2022-11-17T17:23:36.077Z,11.30
2022-11-17T17:26:22.940Z,11.30
2022-11-17T17:29:09.533Z,11.70
2022-11-17T17:31:55.341Z,11.30
2022-11-17T17:34:40.645Z,11.40
2022-11-17T17:37:25.963Z,11.30
2022-11-17T17:40:11.960Z,11.40
2022-11-17T17:42:57.471Z,11.30
2022-11-17T17:45:43.066Z,11.80
2022-11-17T17:48:31.155Z,11.20
2022-11-17T17:51:19.538Z,11.90
2022-11-17T17:54:05.998Z,12.20
2022-11-17T17:56:51.674Z,11.20
2022-11-17T17:59:36.811Z,11.10
2022-11-17T18:02:22.616Z,11.10
2022-11-17T18:05:08.455Z,11.10
2022-11-17T18:07:53.757Z,11.20
2022-11-17T18:10:39.272Z,11.20
2022-11-17T18:13:24.785Z,12.50
2022-11-17T18:16:15.795Z,11.30
2022-11-17T18:19:03.844Z,11.30
2022-11-17T18:21:49.222Z,11.20
2022-11-17T18:24:34.623Z,12.60
2022-11-17T18:27:20.182Z,11.40
2022-11-17T18:30:06.199Z,10.80
2022-11-17T18:32:51.570Z,10.70
2022-11-17T18:35:37.172Z,10.90
2022-11-17T18:38:22.917Z,10.70
2022-11-17T18:41:16.486Z,10.40
2022-11-17T18:44:02.090Z,10.80
2022-11-17T18:46:47.759Z,10.10
2022-11-17T18:49:34.584Z,11.00
2022-11-17T18:52:20.026Z,10.00
2022-11-17T18:55:06.022Z,10.00
2022-11-17T18:57:51.575Z,9.90
2022-11-17T19:00:36.967Z,10.40
2022-11-17T19:03:23.296Z,9.80
2022-11-17T19:06:10.271Z,11.00
2022-11-17T19:08:58.285Z,10.70
2022-11-17T19:11:44.061Z,10.50
2022-11-17T19:14:29.407Z,11.10
2022-11-17T19:17:14.992Z,10.30
2022-11-17T19:20:00.579Z,10.30
2022-11-17T19:22:45.947Z,10.40
2022-11-17T19:25:32.088Z,11.50
2022-11-17T19:28:17.783Z,12.40
2022-11-17T19:31:05.321Z,10.50
2022-11-17T19:33:51.228Z,10.30
2022-11-17T19:36:36.824Z,10.30
2022-11-17T19:39:22.464Z,10.40
2022-11-17T19:42:07.835Z,10.00
2022-11-17T19:44:53.169Z,10.10
2022-11-17T19:47:38.698Z,10.00
2022-11-17T19:50:24.033Z,10.10
2022-11-17T19:53:09.568Z,10.10
2022-11-17T19:55:57.112Z,10.20
2022-11-17T19:58:43.226Z,10.80
2022-11-17T20:01:30.305Z,10.50
2022-11-17T20:04:15.795Z,10.40
2022-11-17T20:07:01.281Z,10.80
2022-11-17T20:09:46.823Z,10.70
2022-11-17T20:12:34.506Z,10.80
2022-11-17T20:15:33.970Z,10.90
2022-11-17T20:18:20.185Z,10.80
2022-11-17T20:21:06.858Z,10.90
2022-11-17T20:23:53.576Z,10.80
2022-11-17T20:26:42.252Z,11.80
2022-11-17T20:29:27.746Z,11.60
2022-11-17T20:32:13.339Z,10.90
2022-11-17T20:34:59.131Z,10.70
2022-11-17T20:37:44.638Z,11.60
2022-11-17T20:40:31.884Z,10.70
2022-11-17T20:43:17.127Z,10.70
2022-11-17T20:46:03.416Z,10.70
2022-11-17T20:48:49.070Z,10.60
2022-11-17T20:51:35.042Z,10.50
2022-11-17T20:54:20.518Z,10.50
2022-11-17T20:57:06.230Z,10.10
2022-11-17T20:59:51.686Z,10.10
2022-11-17T21:02:37.359Z,10.20
2022-11-17T21:05:22.591Z,10.30
2022-11-17T21:08:08.325Z,10.40
2022-11-17T21:10:58.827Z,10.30
2022-11-17T21:13:44.384Z,12.00
2022-11-17T21:16:30.067Z,10.90
2022-11-17T21:19:17.255Z,10.40
2022-11-17T21:22:03.220Z,10.90
2022-11-17T21:24:48.491Z,11.50
2022-11-17T21:27:34.098Z,10.70
2022-11-17T21:30:19.910Z,10.80
2022-11-17T21:33:05.247Z,10.80
2022-11-17T21:35:50.843Z,10.60
2022-11-17T21:38:37.090Z,10.90
2022-11-17T21:41:25.452Z,11.80
2022-11-17T21:44:13.158Z,11.00
2022-11-17T21:46:58.337Z,11.70
2022-11-17T21:49:43.911Z,12.10
2022-11-17T21:52:29.415Z,10.90
2022-11-17T21:55:15.242Z,12.00
2022-11-17T21:58:00.655Z,11.00
2022-11-17T22:00:46.051Z,10.80
2022-11-17T22:03:31.816Z,10.80
2022-11-17T22:06:19.419Z,10.70
2022-11-17T22:09:05.041Z,10.40
2022-11-17T22:11:51.448Z,10.30
2022-11-17T22:14:36.856Z,10.30
2022-11-17T22:17:22.413Z,10.20
2022-11-17T22:20:09.395Z,11.10
2022-11-17T22:22:56.516Z,10.10
2022-11-17T22:25:46.024Z,10.20
2022-11-17T22:28:31.755Z,10.30
2022-11-17T22:31:17.315Z,10.90
2022-11-17T22:34:03.491Z,10.30
2022-11-17T22:36:49.100Z,10.30
2022-11-17T22:39:34.624Z,11.00
2022-11-17T22:42:20.246Z,11.50
2022-11-17T22:45:05.972Z,10.20
2022-11-17T22:47:51.293Z,10.10
2022-11-17T22:50:36.939Z,10.10
2022-11-17T22:53:22.230Z,10.00
2022-11-17T22:56:09.522Z,10.10
2022-11-17T22:58:59.458Z,10.00
2022-11-17T23:01:45.097Z,9.70
2022-11-17T23:04:30.654Z,9.70
2022-11-17T23:07:16.349Z,9.60
2022-11-17T23:10:01.605Z,10.00
2022-11-17T23:12:47.177Z,9.80
2022-11-17T23:15:32.636Z,9.60
2022-11-17T23:18:18.384Z,9.90
2022-11-17T23:21:09.246Z,10.30
2022-11-17T23:23:55.119Z,10.40
2022-11-17T23:26:41.761Z,10.10
2022-11-17T23:29:28.195Z,10.10
2022-11-17T23:32:13.411Z,10.50
2022-11-17T23:34:59.082Z,10.00
2022-11-17T23:37:44.759Z,10.00
2022-11-17T23:40:30.374Z,10.00
2022-11-17T23:43:15.651Z,9.80
2022-11-17T23:46:07.090Z,9.70
2022-11-17T23:48:52.766Z,9.70
2022-11-17T23:51:38.385Z,9.70
2022-11-17T23:54:24.070Z,10.00
2022-11-17T23:57:09.471Z,8.90
2022-11-17T23:59:55.111Z,9.90
